TAF Text Data
IDs:
Format:
Raw Decoded Include METAR

Data at: 0821 UTC 28 Mar 2020

METAR for:KTOB (Dodge Center Arpt, MN, US)
Text:KTOB 280815Z AUTO 06013G17KT 10SM BKN033 OVC043 06/04 A2973 RMK AO2 PWINO
Temperature: 6.0°C ( 43°F)
Dewpoint: 4.0°C ( 39°F) [RH = 87%]
Pressure (altimeter):29.73 inches Hg (1006.9 mb)
Winds:from the ENE (60 degrees) at 15 MPH (13 knots; 6.7 m/s) gusting to 20 MPH (17 knots; 8.7 m/s)
Visibility:10 or more sm (16+ km)
Ceiling:3300 feet AGL
Clouds: broken clouds at 3300 feet AGL, overcast cloud deck at 4300 feet AGL
QC Flag:automated observation with no human augmentation

TAF for:KTOB (Dodge Center Arpt, MN, US)
Text:No data found